sensor_id;sensor_type;location;lat;lon;timestamp;P1;durP1;ratioP1;P2;durP2;ratioP2
67737;SDS011;54534;43.612;1.572;2023-02-26T00:01:00;6.00;;;3.53;;
67737;SDS011;54534;43.612;1.572;2023-02-26T00:03:26;6.80;;;3.60;;
67737;SDS011;54534;43.612;1.572;2023-02-26T00:05:52;4.67;;;3.60;;
67737;SDS011;54534;43.612;1.572;2023-02-26T00:08:17;5.47;;;3.67;;
67737;SDS011;54534;43.612;1.572;2023-02-26T00:10:42;5.70;;;3.70;;
67737;SDS011;54534;43.612;1.572;2023-02-26T00:13:11;6.07;;;3.77;;
67737;SDS011;54534;43.612;1.572;2023-02-26T00:15:36;5.63;;;3.90;;
67737;SDS011;54534;43.612;1.572;2023-02-26T00:18:03;4.93;;;3.77;;
67737;SDS011;54534;43.612;1.572;2023-02-26T00:20:31;6.53;;;4.13;;
67737;SDS011;54534;43.612;1.572;2023-02-26T00:22:58;5.93;;;3.73;;
67737;SDS011;54534;43.612;1.572;2023-02-26T00:25:23;6.03;;;3.70;;
67737;SDS011;54534;43.612;1.572;2023-02-26T00:27:49;5.07;;;3.40;;
67737;SDS011;54534;43.612;1.572;2023-02-26T00:30:15;5.83;;;3.70;;
67737;SDS011;54534;43.612;1.572;2023-02-26T00:32:41;5.60;;;3.63;;
67737;SDS011;54534;43.612;1.572;2023-02-26T00:35:08;4.30;;;3.40;;
67737;SDS011;54534;43.612;1.572;2023-02-26T00:42:42;3.53;;;3.07;;
67737;SDS011;54534;43.612;1.572;2023-02-26T00:45:08;5.60;;;3.30;;
67737;SDS011;54534;43.612;1.572;2023-02-26T00:47:39;6.03;;;3.53;;
67737;SDS011;54534;43.612;1.572;2023-02-26T00:50:24;4.00;;;3.10;;
67737;SDS011;54534;43.612;1.572;2023-02-26T00:55:21;4.37;;;3.07;;
67737;SDS011;54534;43.612;1.572;2023-02-26T00:57:47;8.17;;;3.00;;
67737;SDS011;54534;43.612;1.572;2023-02-26T01:00:12;3.67;;;2.67;;
67737;SDS011;54534;43.612;1.572;2023-02-26T01:02:39;4.33;;;3.20;;
67737;SDS011;54534;43.612;1.572;2023-02-26T01:05:05;3.53;;;2.97;;
67737;SDS011;54534;43.612;1.572;2023-02-26T01:07:43;4.40;;;2.73;;
67737;SDS011;54534;43.612;1.572;2023-02-26T01:10:11;5.43;;;3.27;;
67737;SDS011;54534;43.612;1.572;2023-02-26T01:12:38;3.97;;;2.87;;
67737;SDS011;54534;43.612;1.572;2023-02-26T01:15:04;3.17;;;2.80;;
67737;SDS011;54534;43.612;1.572;2023-02-26T01:22:43;5.23;;;2.70;;
67737;SDS011;54534;43.612;1.572;2023-02-26T01:25:34;4.43;;;3.08;;
67737;SDS011;54534;43.612;1.572;2023-02-26T01:28:05;3.33;;;2.87;;
67737;SDS011;54534;43.612;1.572;2023-02-26T01:30:31;2.70;;;2.50;;
67737;SDS011;54534;43.612;1.572;2023-02-26T01:32:58;3.30;;;2.83;;
67737;SDS011;54534;43.612;1.572;2023-02-26T01:38:17;3.70;;;2.97;;
67737;SDS011;54534;43.612;1.572;2023-02-26T01:43:44;3.92;;;2.85;;
67737;SDS011;54534;43.612;1.572;2023-02-26T01:46:22;3.08;;;2.47;;
67737;SDS011;54534;43.612;1.572;2023-02-26T01:48:55;4.40;;;2.67;;
67737;SDS011;54534;43.612;1.572;2023-02-26T01:54:13;3.70;;;2.70;;
67737;SDS011;54534;43.612;1.572;2023-02-26T01:56:40;2.47;;;2.27;;
67737;SDS011;54534;43.612;1.572;2023-02-26T01:59:08;3.73;;;2.87;;
67737;SDS011;54534;43.612;1.572;2023-02-26T02:01:38;4.33;;;3.00;;
67737;SDS011;54534;43.612;1.572;2023-02-26T02:04:05;2.77;;;2.40;;
67737;SDS011;54534;43.612;1.572;2023-02-26T02:06:35;3.90;;;2.80;;
67737;SDS011;54534;43.612;1.572;2023-02-26T02:09:01;2.70;;;2.50;;
67737;SDS011;54534;43.612;1.572;2023-02-26T02:11:29;3.77;;;2.90;;
67737;SDS011;54534;43.612;1.572;2023-02-26T02:22:34;4.87;;;2.37;;
67737;SDS011;54534;43.612;1.572;2023-02-26T02:33:29;3.37;;;2.30;;
67737;SDS011;54534;43.612;1.572;2023-02-26T02:36:00;2.80;;;2.50;;
67737;SDS011;54534;43.612;1.572;2023-02-26T02:41:36;3.70;;;2.40;;
67737;SDS011;54534;43.612;1.572;2023-02-26T02:44:09;3.00;;;2.40;;
67737;SDS011;54534;43.612;1.572;2023-02-26T02:46:38;2.73;;;2.40;;
67737;SDS011;54534;43.612;1.572;2023-02-26T02:49:08;2.97;;;2.40;;
67737;SDS011;54534;43.612;1.572;2023-02-26T02:51:39;2.57;;;2.33;;
67737;SDS011;54534;43.612;1.572;2023-02-26T02:54:12;3.90;;;2.20;;
67737;SDS011;54534;43.612;1.572;2023-02-26T02:56:45;4.23;;;2.60;;
67737;SDS011;54534;43.612;1.572;2023-02-26T03:04:50;2.77;;;2.30;;
67737;SDS011;54534;43.612;1.572;2023-02-26T03:07:16;2.60;;;2.40;;
67737;SDS011;54534;43.612;1.572;2023-02-26T03:09:42;3.10;;;2.07;;
67737;SDS011;54534;43.612;1.572;2023-02-26T03:12:08;2.70;;;2.17;;
67737;SDS011;54534;43.612;1.572;2023-02-26T03:14:33;3.93;;;2.50;;
67737;SDS011;54534;43.612;1.572;2023-02-26T03:17:13;2.60;;;2.10;;
67737;SDS011;54534;43.612;1.572;2023-02-26T03:20:06;2.43;;;2.10;;
67737;SDS011;54534;43.612;1.572;2023-02-26T03:35:54;2.60;;;2.10;;
67737;SDS011;54534;43.612;1.572;2023-02-26T03:38:48;3.17;;;2.27;;
67737;SDS011;54534;43.612;1.572;2023-02-26T03:41:20;2.17;;;1.90;;
67737;SDS011;54534;43.612;1.572;2023-02-26T03:44:07;2.33;;;2.03;;
67737;SDS011;54534;43.612;1.572;2023-02-26T03:46:40;3.00;;;2.17;;
67737;SDS011;54534;43.612;1.572;2023-02-26T03:49:13;3.17;;;2.13;;
67737;SDS011;54534;43.612;1.572;2023-02-26T03:51:44;2.53;;;2.00;;
67737;SDS011;54534;43.612;1.572;2023-02-26T03:54:21;2.33;;;1.77;;
67737;SDS011;54534;43.612;1.572;2023-02-26T03:56:51;3.13;;;2.77;;
67737;SDS011;54534;43.612;1.572;2023-02-26T03:59:18;3.77;;;2.43;;
67737;SDS011;54534;43.612;1.572;2023-02-26T04:04:11;3.13;;;1.70;;
67737;SDS011;54534;43.612;1.572;2023-02-26T04:06:43;2.10;;;1.90;;
67737;SDS011;54534;43.612;1.572;2023-02-26T04:09:09;3.67;;;1.80;;
67737;SDS011;54534;43.612;1.572;2023-02-26T04:11:36;2.17;;;1.80;;
67737;SDS011;54534;43.612;1.572;2023-02-26T04:14:03;2.23;;;1.73;;
67737;SDS011;54534;43.612;1.572;2023-02-26T04:16:29;1.90;;;1.70;;
67737;SDS011;54534;43.612;1.572;2023-02-26T04:18:54;2.17;;;1.80;;
67737;SDS011;54534;43.612;1.572;2023-02-26T04:21:20;2.03;;;1.80;;
67737;SDS011;54534;43.612;1.572;2023-02-26T04:23:46;2.87;;;1.80;;
67737;SDS011;54534;43.612;1.572;2023-02-26T04:26:12;2.63;;;1.93;;
67737;SDS011;54534;43.612;1.572;2023-02-26T04:28:38;2.10;;;1.87;;
67737;SDS011;54534;43.612;1.572;2023-02-26T04:31:04;4.50;;;2.00;;
67737;SDS011;54534;43.612;1.572;2023-02-26T04:33:30;4.23;;;1.93;;
67737;SDS011;54534;43.612;1.572;2023-02-26T04:35:57;2.10;;;1.90;;
67737;SDS011;54534;43.612;1.572;2023-02-26T04:38:23;1.70;;;1.60;;
67737;SDS011;54534;43.612;1.572;2023-02-26T04:40:48;1.63;;;1.53;;
67737;SDS011;54534;43.612;1.572;2023-02-26T04:43:15;2.53;;;2.00;;
67737;SDS011;54534;43.612;1.572;2023-02-26T04:45:41;2.47;;;1.80;;
67737;SDS011;54534;43.612;1.572;2023-02-26T04:48:06;1.97;;;1.57;;
67737;SDS011;54534;43.612;1.572;2023-02-26T04:50:31;1.73;;;1.50;;
67737;SDS011;54534;43.612;1.572;2023-02-26T04:52:57;1.40;;;1.30;;
67737;SDS011;54534;43.612;1.572;2023-02-26T04:55:22;1.70;;;1.60;;
67737;SDS011;54534;43.612;1.572;2023-02-26T04:57:47;1.53;;;1.40;;
67737;SDS011;54534;43.612;1.572;2023-02-26T05:00:13;2.10;;;1.70;;
67737;SDS011;54534;43.612;1.572;2023-02-26T05:02:39;2.57;;;1.70;;
67737;SDS011;54534;43.612;1.572;2023-02-26T05:05:05;2.47;;;1.70;;
67737;SDS011;54534;43.612;1.572;2023-02-26T05:07:31;2.57;;;1.60;;
67737;SDS011;54534;43.612;1.572;2023-02-26T05:09:56;1.43;;;1.27;;
67737;SDS011;54534;43.612;1.572;2023-02-26T05:12:22;1.83;;;1.73;;
67737;SDS011;54534;43.612;1.572;2023-02-26T05:14:47;2.00;;;1.30;;
67737;SDS011;54534;43.612;1.572;2023-02-26T05:17:12;1.77;;;1.67;;
67737;SDS011;54534;43.612;1.572;2023-02-26T05:19:38;2.47;;;1.40;;
67737;SDS011;54534;43.612;1.572;2023-02-26T05:22:04;1.60;;;1.50;;
67737;SDS011;54534;43.612;1.572;2023-02-26T05:24:29;3.30;;;1.70;;
67737;SDS011;54534;43.612;1.572;2023-02-26T05:26:54;2.00;;;1.70;;
67737;SDS011;54534;43.612;1.572;2023-02-26T05:29:20;2.50;;;1.37;;
67737;SDS011;54534;43.612;1.572;2023-02-26T05:31:45;1.40;;;1.30;;
67737;SDS011;54534;43.612;1.572;2023-02-26T05:34:11;1.63;;;1.53;;
67737;SDS011;54534;43.612;1.572;2023-02-26T05:36:36;2.07;;;1.50;;
67737;SDS011;54534;43.612;1.572;2023-02-26T05:39:02;2.17;;;1.50;;
67737;SDS011;54534;43.612;1.572;2023-02-26T05:41:27;1.43;;;1.30;;
67737;SDS011;54534;43.612;1.572;2023-02-26T05:43:53;1.20;;;1.10;;
67737;SDS011;54534;43.612;1.572;2023-02-26T05:46:18;1.53;;;1.37;;
67737;SDS011;54534;43.612;1.572;2023-02-26T05:48:43;1.63;;;1.37;;
67737;SDS011;54534;43.612;1.572;2023-02-26T05:51:09;2.17;;;1.90;;
67737;SDS011;54534;43.612;1.572;2023-02-26T05:53:34;1.40;;;1.30;;
67737;SDS011;54534;43.612;1.572;2023-02-26T05:56:00;1.90;;;1.40;;
67737;SDS011;54534;43.612;1.572;2023-02-26T05:58:25;2.50;;;1.57;;
67737;SDS011;54534;43.612;1.572;2023-02-26T06:00:50;1.87;;;1.73;;
67737;SDS011;54534;43.612;1.572;2023-02-26T06:03:16;1.30;;;1.20;;
67737;SDS011;54534;43.612;1.572;2023-02-26T06:05:41;1.57;;;1.37;;
67737;SDS011;54534;43.612;1.572;2023-02-26T06:08:07;1.30;;;1.20;;
67737;SDS011;54534;43.612;1.572;2023-02-26T06:10:32;1.90;;;1.30;;
67737;SDS011;54534;43.612;1.572;2023-02-26T06:12:58;1.80;;;1.53;;
67737;SDS011;54534;43.612;1.572;2023-02-26T06:15:23;1.63;;;1.30;;
67737;SDS011;54534;43.612;1.572;2023-02-26T06:17:49;1.27;;;1.17;;
67737;SDS011;54534;43.612;1.572;2023-02-26T06:20:14;1.93;;;1.30;;
67737;SDS011;54534;43.612;1.572;2023-02-26T06:22:40;1.50;;;1.30;;
67737;SDS011;54534;43.612;1.572;2023-02-26T06:25:05;1.23;;;1.13;;
67737;SDS011;54534;43.612;1.572;2023-02-26T06:27:31;1.73;;;1.23;;
67737;SDS011;54534;43.612;1.572;2023-02-26T06:29:57;1.63;;;1.40;;
67737;SDS011;54534;43.612;1.572;2023-02-26T06:32:22;1.60;;;1.33;;
67737;SDS011;54534;43.612;1.572;2023-02-26T06:34:47;1.20;;;1.10;;
67737;SDS011;54534;43.612;1.572;2023-02-26T06:37:13;2.27;;;1.80;;
67737;SDS011;54534;43.612;1.572;2023-02-26T06:39:38;3.83;;;1.47;;
67737;SDS011;54534;43.612;1.572;2023-02-26T06:42:04;2.80;;;1.67;;
67737;SDS011;54534;43.612;1.572;2023-02-26T06:44:29;1.83;;;1.30;;
67737;SDS011;54534;43.612;1.572;2023-02-26T06:46:54;1.30;;;1.10;;
67737;SDS011;54534;43.612;1.572;2023-02-26T06:49:20;1.27;;;1.17;;
67737;SDS011;54534;43.612;1.572;2023-02-26T06:51:45;1.37;;;1.20;;
67737;SDS011;54534;43.612;1.572;2023-02-26T06:54:11;1.60;;;1.30;;
67737;SDS011;54534;43.612;1.572;2023-02-26T06:56:36;2.10;;;1.20;;
67737;SDS011;54534;43.612;1.572;2023-02-26T06:59:02;1.40;;;1.30;;
67737;SDS011;54534;43.612;1.572;2023-02-26T07:01:27;1.50;;;1.00;;
67737;SDS011;54534;43.612;1.572;2023-02-26T07:03:52;2.50;;;1.10;;
67737;SDS011;54534;43.612;1.572;2023-02-26T07:06:18;1.87;;;0.83;;
67737;SDS011;54534;43.612;1.572;2023-02-26T07:08:43;1.97;;;1.30;;
67737;SDS011;54534;43.612;1.572;2023-02-26T07:11:09;1.03;;;0.90;;
67737;SDS011;54534;43.612;1.572;2023-02-26T07:13:35;17.40;;;1.30;;
67737;SDS011;54534;43.612;1.572;2023-02-26T07:16:02;2.47;;;1.20;;
67737;SDS011;54534;43.612;1.572;2023-02-26T07:18:31;2.78;;;1.25;;
67737;SDS011;54534;43.612;1.572;2023-02-26T07:20:58;14.97;;;1.50;;
67737;SDS011;54534;43.612;1.572;2023-02-26T07:23:23;5.87;;;1.33;;
67737;SDS011;54534;43.612;1.572;2023-02-26T07:25:48;7.90;;;1.20;;
67737;SDS011;54534;43.612;1.572;2023-02-26T07:28:14;1.57;;;1.20;;
67737;SDS011;54534;43.612;1.572;2023-02-26T07:30:39;5.10;;;1.77;;
67737;SDS011;54534;43.612;1.572;2023-02-26T07:33:06;7.47;;;1.90;;
67737;SDS011;54534;43.612;1.572;2023-02-26T07:35:32;3.67;;;1.30;;
67737;SDS011;54534;43.612;1.572;2023-02-26T07:37:58;12.43;;;1.53;;
67737;SDS011;54534;43.612;1.572;2023-02-26T07:40:23;7.17;;;1.60;;
67737;SDS011;54534;43.612;1.572;2023-02-26T07:42:49;3.00;;;1.20;;
67737;SDS011;54534;43.612;1.572;2023-02-26T07:45:14;6.87;;;1.40;;
67737;SDS011;54534;43.612;1.572;2023-02-26T07:47:42;2.80;;;1.30;;
67737;SDS011;54534;43.612;1.572;2023-02-26T07:50:08;2.60;;;1.20;;
67737;SDS011;54534;43.612;1.572;2023-02-26T07:52:34;5.80;;;1.57;;
67737;SDS011;54534;43.612;1.572;2023-02-26T07:55:00;2.23;;;1.50;;
67737;SDS011;54534;43.612;1.572;2023-02-26T07:57:25;1.57;;;1.10;;
67737;SDS011;54534;43.612;1.572;2023-02-26T07:59:51;9.27;;;1.63;;
67737;SDS011;54534;43.612;1.572;2023-02-26T08:02:16;2.50;;;1.23;;
67737;SDS011;54534;43.612;1.572;2023-02-26T08:04:42;3.13;;;1.13;;
67737;SDS011;54534;43.612;1.572;2023-02-26T08:07:08;5.23;;;1.20;;
67737;SDS011;54534;43.612;1.572;2023-02-26T08:09:34;2.60;;;1.37;;
67737;SDS011;54534;43.612;1.572;2023-02-26T08:12:00;29.37;;;2.77;;
67737;SDS011;54534;43.612;1.572;2023-02-26T08:14:25;14.23;;;1.70;;
67737;SDS011;54534;43.612;1.572;2023-02-26T08:16:50;11.30;;;1.50;;
67737;SDS011;54534;43.612;1.572;2023-02-26T08:19:17;6.40;;;1.40;;
67737;SDS011;54534;43.612;1.572;2023-02-26T08:21:42;5.77;;;1.70;;
67737;SDS011;54534;43.612;1.572;2023-02-26T08:24:09;26.40;;;1.87;;
67737;SDS011;54534;43.612;1.572;2023-02-26T08:26:36;4.13;;;1.47;;
67737;SDS011;54534;43.612;1.572;2023-02-26T08:29:01;4.73;;;1.50;;
67737;SDS011;54534;43.612;1.572;2023-02-26T08:31:27;6.13;;;1.47;;
67737;SDS011;54534;43.612;1.572;2023-02-26T08:33:53;9.67;;;1.40;;
67737;SDS011;54534;43.612;1.572;2023-02-26T08:36:19;17.83;;;2.30;;
67737;SDS011;54534;43.612;1.572;2023-02-26T08:38:46;4.90;;;1.23;;
67737;SDS011;54534;43.612;1.572;2023-02-26T08:41:11;7.70;;;1.60;;
67737;SDS011;54534;43.612;1.572;2023-02-26T08:43:37;6.63;;;1.30;;
67737;SDS011;54534;43.612;1.572;2023-02-26T08:46:02;4.07;;;1.20;;
67737;SDS011;54534;43.612;1.572;2023-02-26T08:48:28;5.30;;;1.40;;
67737;SDS011;54534;43.612;1.572;2023-02-26T08:50:53;2.70;;;1.10;;
67737;SDS011;54534;43.612;1.572;2023-02-26T08:53:19;3.93;;;1.30;;
67737;SDS011;54534;43.612;1.572;2023-02-26T08:55:50;3.00;;;1.70;;
67737;SDS011;54534;43.612;1.572;2023-02-26T08:58:17;8.33;;;1.53;;
67737;SDS011;54534;43.612;1.572;2023-02-26T09:00:43;4.60;;;1.60;;
67737;SDS011;54534;43.612;1.572;2023-02-26T09:03:09;5.07;;;1.40;;
67737;SDS011;54534;43.612;1.572;2023-02-26T09:05:34;5.60;;;1.23;;
67737;SDS011;54534;43.612;1.572;2023-02-26T09:08:00;4.23;;;1.30;;
67737;SDS011;54534;43.612;1.572;2023-02-26T09:10:25;5.60;;;1.30;;
67737;SDS011;54534;43.612;1.572;2023-02-26T09:12:51;4.23;;;1.20;;
67737;SDS011;54534;43.612;1.572;2023-02-26T09:15:16;8.43;;;1.27;;
67737;SDS011;54534;43.612;1.572;2023-02-26T09:17:42;6.90;;;1.47;;
67737;SDS011;54534;43.612;1.572;2023-02-26T09:20:08;4.23;;;1.40;;
67737;SDS011;54534;43.612;1.572;2023-02-26T09:22:34;7.00;;;1.73;;
67737;SDS011;54534;43.612;1.572;2023-02-26T09:25:00;9.50;;;2.07;;
67737;SDS011;54534;43.612;1.572;2023-02-26T09:27:26;18.33;;;2.20;;
67737;SDS011;54534;43.612;1.572;2023-02-26T09:29:52;11.20;;;2.23;;
67737;SDS011;54534;43.612;1.572;2023-02-26T09:32:17;28.33;;;3.10;;
67737;SDS011;54534;43.612;1.572;2023-02-26T09:34:42;23.90;;;2.67;;
67737;SDS011;54534;43.612;1.572;2023-02-26T09:37:08;31.60;;;3.17;;
67737;SDS011;54534;43.612;1.572;2023-02-26T09:39:35;48.90;;;4.93;;
67737;SDS011;54534;43.612;1.572;2023-02-26T09:44:38;48.50;;;4.13;;
67737;SDS011;54534;43.612;1.572;2023-02-26T09:52:03;65.93;;;5.20;;
67737;SDS011;54534;43.612;1.572;2023-02-26T09:54:40;58.27;;;6.33;;
67737;SDS011;54534;43.612;1.572;2023-02-26T09:57:10;53.17;;;5.13;;
67737;SDS011;54534;43.612;1.572;2023-02-26T09:59:50;46.90;;;4.10;;
67737;SDS011;54534;43.612;1.572;2023-02-26T10:02:38;47.73;;;4.37;;
67737;SDS011;54534;43.612;1.572;2023-02-26T10:12:52;52.17;;;5.47;;
67737;SDS011;54534;43.612;1.572;2023-02-26T10:20:37;61.07;;;4.80;;
67737;SDS011;54534;43.612;1.572;2023-02-26T10:23:24;51.10;;;4.87;;
67737;SDS011;54534;43.612;1.572;2023-02-26T10:31:26;42.13;;;5.20;;
67737;SDS011;54534;43.612;1.572;2023-02-26T10:41:50;33.63;;;4.83;;
67737;SDS011;54534;43.612;1.572;2023-02-26T10:47:44;38.40;;;4.47;;
67737;SDS011;54534;43.612;1.572;2023-02-26T10:50:19;35.43;;;4.80;;
67737;SDS011;54534;43.612;1.572;2023-02-26T10:52:46;39.37;;;3.77;;
67737;SDS011;54534;43.612;1.572;2023-02-26T10:57:49;49.30;;;5.50;;
67737;SDS011;54534;43.612;1.572;2023-02-26T11:00:20;46.77;;;4.90;;
67737;SDS011;54534;43.612;1.572;2023-02-26T11:02:50;34.80;;;4.83;;
67737;SDS011;54534;43.612;1.572;2023-02-26T11:05:24;34.47;;;4.17;;
67737;SDS011;54534;43.612;1.572;2023-02-26T11:07:56;33.70;;;5.80;;
67737;SDS011;54534;43.612;1.572;2023-02-26T11:10:30;29.87;;;3.67;;
67737;SDS011;54534;43.612;1.572;2023-02-26T11:13:12;33.20;;;4.17;;
67737;SDS011;54534;43.612;1.572;2023-02-26T11:15:37;33.33;;;4.30;;
67737;SDS011;54534;43.612;1.572;2023-02-26T11:18:03;48.53;;;5.03;;
67737;SDS011;54534;43.612;1.572;2023-02-26T11:20:38;44.23;;;5.20;;
67737;SDS011;54534;43.612;1.572;2023-02-26T11:23:10;36.50;;;5.38;;
67737;SDS011;54534;43.612;1.572;2023-02-26T11:25:38;33.47;;;4.30;;
67737;SDS011;54534;43.612;1.572;2023-02-26T11:28:06;26.80;;;4.50;;
67737;SDS011;54534;43.612;1.572;2023-02-26T11:30:42;39.97;;;6.30;;
67737;SDS011;54534;43.612;1.572;2023-02-26T11:33:57;33.20;;;4.37;;
67737;SDS011;54534;43.612;1.572;2023-02-26T11:36:00;33.40;;;4.90;;
67737;SDS011;54534;43.612;1.572;2023-02-26T11:38:29;34.35;;;4.97;;
67737;SDS011;54534;43.612;1.572;2023-02-26T11:40:56;31.17;;;4.53;;
67737;SDS011;54534;43.612;1.572;2023-02-26T11:43:23;43.47;;;4.67;;
67737;SDS011;54534;43.612;1.572;2023-02-26T11:45:59;60.80;;;7.10;;
67737;SDS011;54534;43.612;1.572;2023-02-26T11:48:27;37.77;;;4.40;;
67737;SDS011;54534;43.612;1.572;2023-02-26T11:51:01;48.63;;;6.67;;
67737;SDS011;54534;43.612;1.572;2023-02-26T11:56:00;34.83;;;4.43;;
67737;SDS011;54534;43.612;1.572;2023-02-26T11:58:36;28.73;;;4.37;;
67737;SDS011;54534;43.612;1.572;2023-02-26T12:01:03;35.30;;;4.10;;
67737;SDS011;54534;43.612;1.572;2023-02-26T12:03:33;25.17;;;3.97;;
67737;SDS011;54534;43.612;1.572;2023-02-26T12:06:05;29.50;;;5.13;;
67737;SDS011;54534;43.612;1.572;2023-02-26T12:08:38;32.27;;;4.03;;
67737;SDS011;54534;43.612;1.572;2023-02-26T12:13:47;19.10;;;3.27;;
67737;SDS011;54534;43.612;1.572;2023-02-26T12:16:23;26.13;;;4.03;;
67737;SDS011;54534;43.612;1.572;2023-02-26T12:35:28;65.43;;;19.07;;
67737;SDS011;54534;43.612;1.572;2023-02-26T12:38:07;150.50;;;45.77;;
67737;SDS011;54534;43.612;1.572;2023-02-26T12:41:05;183.93;;;68.20;;
67737;SDS011;54534;43.612;1.572;2023-02-26T12:43:48;215.97;;;85.27;;
67737;SDS011;54534;43.612;1.572;2023-02-26T12:57:25;152.00;;;62.30;;
67737;SDS011;54534;43.612;1.572;2023-02-26T13:05:37;108.00;;;45.37;;
67737;SDS011;54534;43.612;1.572;2023-02-26T13:08:27;30.83;;;13.30;;
67737;SDS011;54534;43.612;1.572;2023-02-26T13:17:09;15.83;;;3.80;;
67737;SDS011;54534;43.612;1.572;2023-02-26T13:19:49;13.13;;;3.50;;
67737;SDS011;54534;43.612;1.572;2023-02-26T13:22:21;4.40;;;2.63;;
67737;SDS011;54534;43.612;1.572;2023-02-26T13:27:43;7.77;;;3.20;;
67737;SDS011;54534;43.612;1.572;2023-02-26T13:30:16;21.60;;;3.23;;
67737;SDS011;54534;43.612;1.572;2023-02-26T13:32:46;20.10;;;4.70;;
67737;SDS011;54534;43.612;1.572;2023-02-26T13:35:24;14.65;;;2.85;;
67737;SDS011;54534;43.612;1.572;2023-02-26T13:37:55;7.57;;;2.40;;
67737;SDS011;54534;43.612;1.572;2023-02-26T13:40:35;5.97;;;2.67;;
67737;SDS011;54534;43.612;1.572;2023-02-26T13:46:18;13.53;;;2.70;;
67737;SDS011;54534;43.612;1.572;2023-02-26T13:51:38;10.33;;;2.30;;
67737;SDS011;54534;43.612;1.572;2023-02-26T13:56:48;8.67;;;2.10;;
67737;SDS011;54534;43.612;1.572;2023-02-26T13:59:29;7.77;;;2.40;;
67737;SDS011;54534;43.612;1.572;2023-02-26T14:02:02;9.10;;;2.23;;
67737;SDS011;54534;43.612;1.572;2023-02-26T14:05:00;6.70;;;2.33;;
67737;SDS011;54534;43.612;1.572;2023-02-26T14:07:53;6.97;;;2.23;;
67737;SDS011;54534;43.612;1.572;2023-02-26T14:10:53;9.67;;;1.90;;
67737;SDS011;54534;43.612;1.572;2023-02-26T14:16:33;10.70;;;2.43;;
67737;SDS011;54534;43.612;1.572;2023-02-26T14:19:50;8.83;;;2.10;;
67737;SDS011;54534;43.612;1.572;2023-02-26T14:21:52;7.53;;;2.10;;
67737;SDS011;54534;43.612;1.572;2023-02-26T14:24:29;4.57;;;2.07;;
67737;SDS011;54534;43.612;1.572;2023-02-26T14:27:07;4.63;;;2.30;;
67737;SDS011;54534;43.612;1.572;2023-02-26T14:35:30;4.93;;;2.40;;
67737;SDS011;54534;43.612;1.572;2023-02-26T14:40:38;3.80;;;1.73;;
67737;SDS011;54534;43.612;1.572;2023-02-26T14:43:15;5.37;;;1.67;;
67737;SDS011;54534;43.612;1.572;2023-02-26T14:45:46;6.00;;;2.10;;
67737;SDS011;54534;43.612;1.572;2023-02-26T14:48:15;4.83;;;1.77;;
67737;SDS011;54534;43.612;1.572;2023-02-26T14:56:05;4.07;;;1.43;;
67737;SDS011;54534;43.612;1.572;2023-02-26T15:11:54;3.47;;;1.80;;
67737;SDS011;54534;43.612;1.572;2023-02-26T15:14:34;1.97;;;1.37;;
67737;SDS011;54534;43.612;1.572;2023-02-26T15:20:28;3.33;;;1.33;;
67737;SDS011;54534;43.612;1.572;2023-02-26T15:25:51;2.03;;;1.40;;
67737;SDS011;54534;43.612;1.572;2023-02-26T15:28:27;2.40;;;1.57;;
67737;SDS011;54534;43.612;1.572;2023-02-26T15:30:55;4.67;;;1.20;;
67737;SDS011;54534;43.612;1.572;2023-02-26T15:33:22;2.90;;;1.23;;
67737;SDS011;54534;43.612;1.572;2023-02-26T15:35:50;2.70;;;1.30;;
67737;SDS011;54534;43.612;1.572;2023-02-26T15:38:17;3.00;;;1.20;;
67737;SDS011;54534;43.612;1.572;2023-02-26T15:40:43;2.60;;;1.33;;
67737;SDS011;54534;43.612;1.572;2023-02-26T15:43:11;1.50;;;1.20;;
67737;SDS011;54534;43.612;1.572;2023-02-26T15:45:41;1.50;;;0.90;;
67737;SDS011;54534;43.612;1.572;2023-02-26T15:48:11;1.30;;;1.13;;
67737;SDS011;54534;43.612;1.572;2023-02-26T15:50:41;1.55;;;1.23;;
67737;SDS011;54534;43.612;1.572;2023-02-26T15:53:11;2.70;;;1.15;;
67737;SDS011;54534;43.612;1.572;2023-02-26T15:55:46;1.37;;;1.13;;
67737;SDS011;54534;43.612;1.572;2023-02-26T15:58:19;1.37;;;1.10;;
67737;SDS011;54534;43.612;1.572;2023-02-26T16:00:51;2.60;;;1.33;;
67737;SDS011;54534;43.612;1.572;2023-02-26T16:03:23;1.17;;;0.90;;
67737;SDS011;54534;43.612;1.572;2023-02-26T16:05:52;3.70;;;1.00;;
67737;SDS011;54534;43.612;1.572;2023-02-26T16:08:18;1.13;;;0.80;;
67737;SDS011;54534;43.612;1.572;2023-02-26T16:10:44;1.67;;;1.37;;
67737;SDS011;54534;43.612;1.572;2023-02-26T16:13:14;2.27;;;1.10;;
67737;SDS011;54534;43.612;1.572;2023-02-26T16:15:46;1.03;;;0.77;;
67737;SDS011;54534;43.612;1.572;2023-02-26T16:18:13;1.20;;;0.93;;
67737;SDS011;54534;43.612;1.572;2023-02-26T16:20:45;6.47;;;1.48;;
67737;SDS011;54534;43.612;1.572;2023-02-26T16:23:17;9.33;;;1.23;;
67737;SDS011;54534;43.612;1.572;2023-02-26T16:28:19;5.57;;;1.10;;
67737;SDS011;54534;43.612;1.572;2023-02-26T16:30:52;18.93;;;1.27;;
67737;SDS011;54534;43.612;1.572;2023-02-26T16:33:21;9.82;;;1.30;;
67737;SDS011;54534;43.612;1.572;2023-02-26T16:36:02;3.60;;;1.67;;
67737;SDS011;54534;43.612;1.572;2023-02-26T16:38:49;2.83;;;1.00;;
67737;SDS011;54534;43.612;1.572;2023-02-26T16:41:22;4.40;;;1.00;;
67737;SDS011;54534;43.612;1.572;2023-02-26T16:43:52;12.37;;;1.30;;
67737;SDS011;54534;43.612;1.572;2023-02-26T16:51:47;3.03;;;1.37;;
67737;SDS011;54534;43.612;1.572;2023-02-26T16:54:24;11.00;;;1.60;;
67737;SDS011;54534;43.612;1.572;2023-02-26T16:57:15;1.10;;;0.90;;
67737;SDS011;54534;43.612;1.572;2023-02-26T16:59:42;7.28;;;1.75;;
67737;SDS011;54534;43.612;1.572;2023-02-26T17:02:22;3.10;;;1.10;;
67737;SDS011;54534;43.612;1.572;2023-02-26T17:04:51;3.40;;;1.10;;
67737;SDS011;54534;43.612;1.572;2023-02-26T17:07:46;3.23;;;1.23;;
67737;SDS011;54534;43.612;1.572;2023-02-26T17:10:17;3.57;;;1.07;;
67737;SDS011;54534;43.612;1.572;2023-02-26T17:12:50;1.43;;;1.00;;
67737;SDS011;54534;43.612;1.572;2023-02-26T17:15:18;2.80;;;1.00;;
67737;SDS011;54534;43.612;1.572;2023-02-26T17:17:50;2.43;;;0.70;;
67737;SDS011;54534;43.612;1.572;2023-02-26T17:22:45;3.10;;;0.90;;
67737;SDS011;54534;43.612;1.572;2023-02-26T17:25:14;6.77;;;1.20;;
67737;SDS011;54534;43.612;1.572;2023-02-26T17:27:42;6.80;;;1.07;;
67737;SDS011;54534;43.612;1.572;2023-02-26T17:30:10;5.40;;;0.97;;
67737;SDS011;54534;43.612;1.572;2023-02-26T17:32:40;4.90;;;1.10;;
67737;SDS011;54534;43.612;1.572;2023-02-26T17:35:06;5.37;;;1.27;;
67737;SDS011;54534;43.612;1.572;2023-02-26T17:37:33;7.37;;;1.20;;
67737;SDS011;54534;43.612;1.572;2023-02-26T17:39:59;5.83;;;1.20;;
67737;SDS011;54534;43.612;1.572;2023-02-26T17:42:26;7.00;;;1.13;;
67737;SDS011;54534;43.612;1.572;2023-02-26T17:44:51;5.67;;;1.37;;
67737;SDS011;54534;43.612;1.572;2023-02-26T17:47:23;12.67;;;1.37;;
67737;SDS011;54534;43.612;1.572;2023-02-26T17:49:50;7.53;;;1.20;;
67737;SDS011;54534;43.612;1.572;2023-02-26T17:52:16;6.07;;;1.67;;
67737;SDS011;54534;43.612;1.572;2023-02-26T17:54:41;2.40;;;1.27;;
67737;SDS011;54534;43.612;1.572;2023-02-26T17:57:17;4.63;;;1.83;;
67737;SDS011;54534;43.612;1.572;2023-02-26T17:59:44;3.80;;;2.10;;
67737;SDS011;54534;43.612;1.572;2023-02-26T18:02:23;5.87;;;2.23;;
67737;SDS011;54534;43.612;1.572;2023-02-26T18:04:52;7.13;;;2.70;;
67737;SDS011;54534;43.612;1.572;2023-02-26T18:07:18;6.47;;;2.40;;
67737;SDS011;54534;43.612;1.572;2023-02-26T18:09:45;3.53;;;1.97;;
67737;SDS011;54534;43.612;1.572;2023-02-26T18:12:20;4.83;;;2.50;;
67737;SDS011;54534;43.612;1.572;2023-02-26T18:14:46;4.80;;;2.50;;
67737;SDS011;54534;43.612;1.572;2023-02-26T18:17:19;4.97;;;2.53;;
67737;SDS011;54534;43.612;1.572;2023-02-26T18:19:47;4.80;;;2.10;;
67737;SDS011;54534;43.612;1.572;2023-02-26T18:22:20;7.00;;;2.57;;
67737;SDS011;54534;43.612;1.572;2023-02-26T18:24:49;3.87;;;2.50;;